createdAt,value
2017-11-20T00:00:50.867Z,72.12
2017-11-20T00:03:19.223Z,72.34
2017-11-20T00:05:53.052Z,72.74
2017-11-20T00:08:21.375Z,73.39
2017-11-20T00:10:49.722Z,74.18
2017-11-20T00:13:18.035Z,74.57
2017-11-20T00:15:46.389Z,74.67
2017-11-20T00:18:14.735Z,74.83
2017-11-20T00:20:43.066Z,74.94
2017-11-20T00:23:12.188Z,75.22
2017-11-20T00:25:40.542Z,75.26
2017-11-20T00:28:09.663Z,75.22
2017-11-20T00:30:37.982Z,75.41
2017-11-20T00:33:06.350Z,75.42
2017-11-20T00:35:34.675Z,75.49
2017-11-20T00:38:03.800Z,75.65
2017-11-20T00:40:33.246Z,75.72
2017-11-20T00:43:01.563Z,75.94
2017-11-20T00:45:29.928Z,76.42
2017-11-20T00:47:59.013Z,76.60
2017-11-20T00:50:27.338Z,76.73
2017-11-20T00:52:55.685Z,76.69
2017-11-20T00:55:24.442Z,76.41
2017-11-20T00:57:52.803Z,76.57
2017-11-20T01:00:21.999Z,76.87
2017-11-20T01:02:51.082Z,77.20
2017-11-20T01:05:19.834Z,76.84
2017-11-20T01:07:48.921Z,76.57
2017-11-20T01:10:18.051Z,76.19
2017-11-20T01:12:47.773Z,76.09
2017-11-20T01:15:16.142Z,75.97
2017-11-20T01:17:44.477Z,75.37
2017-11-20T01:20:13.568Z,75.05
2017-11-20T01:22:42.330Z,75.12
2017-11-20T01:25:12.022Z,75.12
2017-11-20T01:27:40.770Z,75.18
2017-11-20T01:30:09.082Z,75.25
2017-11-20T01:32:37.446Z,75.15
2017-11-20T01:35:06.539Z,74.73
2017-11-20T01:37:35.290Z,74.47
2017-11-20T01:40:04.366Z,74.68
2017-11-20T01:42:32.718Z,74.86
2017-11-20T01:45:01.066Z,74.99
2017-11-20T01:47:29.822Z,74.87
2017-11-20T01:49:58.912Z,75.12
2017-11-20T01:52:27.266Z,75.02
2017-11-20T01:54:55.666Z,75.19
2017-11-20T01:57:23.999Z,75.25
2017-11-20T01:59:52.363Z,75.92
2017-11-20T02:02:20.683Z,75.88
2017-11-20T02:04:49.042Z,76.14
2017-11-20T02:07:17.420Z,76.27
2017-11-20T02:09:45.750Z,76.44
2017-11-20T02:12:14.866Z,76.59
2017-11-20T02:14:43.222Z,76.83
2017-11-20T02:17:12.315Z,77.08
2017-11-20T02:19:41.437Z,77.36
2017-11-20T02:22:09.753Z,77.63
2017-11-20T02:24:38.125Z,77.65
2017-11-20T02:27:06.450Z,77.72
2017-11-20T02:29:34.778Z,77.94
2017-11-20T02:32:03.546Z,77.89
2017-11-20T02:34:32.990Z,78.04
2017-11-20T02:37:02.102Z,78.28
2017-11-20T02:39:30.416Z,78.33
2017-11-20T02:41:58.725Z,78.31
2017-11-20T02:44:27.826Z,78.51
2017-11-20T02:46:56.181Z,78.80
2017-11-20T02:49:24.551Z,79.15
2017-11-20T02:51:53.634Z,79.33
2017-11-20T02:54:21.948Z,79.39
2017-11-20T02:56:50.710Z,79.65
2017-11-20T02:59:19.068Z,79.95
2017-11-20T03:01:47.405Z,80.22
2017-11-20T03:04:15.793Z,80.62
2017-11-20T03:06:44.133Z,81.00
2017-11-20T03:09:12.460Z,81.04
2017-11-20T03:11:42.193Z,81.04
2017-11-20T03:14:10.518Z,81.40
2017-11-20T03:16:38.842Z,81.80
2017-11-20T03:19:07.213Z,82.16
2017-11-20T03:21:35.556Z,82.39
2017-11-20T03:24:03.865Z,82.56
2017-11-20T03:26:32.176Z,82.63
2017-11-20T03:29:00.506Z,82.82
2017-11-20T03:31:29.584Z,83.04
2017-11-20T03:33:58.709Z,83.26
2017-11-20T03:36:27.027Z,83.32
2017-11-20T03:38:55.466Z,83.36
2017-11-20T03:41:24.221Z,83.63
2017-11-20T03:43:54.084Z,83.86
2017-11-20T03:46:22.425Z,84.16
2017-11-20T03:48:51.513Z,84.40
2017-11-20T03:51:19.904Z,84.65
2017-11-20T03:53:48.621Z,85.03
2017-11-20T03:56:16.954Z,85.14
2017-11-20T03:58:45.312Z,85.52
2017-11-20T04:01:13.637Z,85.78
2017-11-20T04:03:41.992Z,85.99
2017-11-20T04:06:11.140Z,86.27
2017-11-20T04:08:39.507Z,86.49
2017-11-20T04:11:08.640Z,86.81
2017-11-20T04:13:36.988Z,86.98
2017-11-20T04:16:05.334Z,87.03
2017-11-20T04:18:34.072Z,86.92
2017-11-20T04:21:02.417Z,86.84
2017-11-20T04:23:30.737Z,86.79
2017-11-20T04:25:59.030Z,86.75
2017-11-20T04:28:27.368Z,86.64
2017-11-20T04:30:57.589Z,86.41
2017-11-20T04:33:25.916Z,86.16
2017-11-20T04:35:55.001Z,85.90
2017-11-20T04:38:23.715Z,85.61
2017-11-20T04:40:52.037Z,85.40
2017-11-20T04:43:20.325Z,85.17
2017-11-20T04:45:49.407Z,84.87
2017-11-20T04:48:17.728Z,84.69
2017-11-20T04:50:46.809Z,84.50
2017-11-20T04:53:15.109Z,84.35
2017-11-20T04:55:43.436Z,84.21
2017-11-20T04:58:11.728Z,84.08
2017-11-20T05:00:40.788Z,83.90
2017-11-20T05:03:09.220Z,83.84
2017-11-20T05:05:37.568Z,83.92
2017-11-20T05:08:07.376Z,83.98
2017-11-20T05:10:35.732Z,83.92
2017-11-20T05:13:04.053Z,83.79
2017-11-20T05:15:33.157Z,83.51
2017-11-20T05:18:01.850Z,83.23
2017-11-20T05:20:30.911Z,82.98
2017-11-20T05:22:59.646Z,82.83
2017-11-20T05:25:27.959Z,82.72
2017-11-20T05:27:56.275Z,82.53
2017-11-20T05:30:25.367Z,82.34
2017-11-20T05:32:53.804Z,82.40
2017-11-20T05:35:22.856Z,82.59
2017-11-20T05:37:51.156Z,82.75
2017-11-20T05:40:19.463Z,82.87
2017-11-20T05:42:47.768Z,83.07
2017-11-20T05:45:16.315Z,83.22
2017-11-20T05:47:45.416Z,83.25
2017-11-20T05:50:13.794Z,83.12
2017-11-20T05:52:42.281Z,83.15
2017-11-20T05:55:10.615Z,83.23
2017-11-20T05:57:38.917Z,83.18
2017-11-20T06:00:07.261Z,83.01
2017-11-20T06:02:35.565Z,82.75
2017-11-20T06:05:04.753Z,82.64
2017-11-20T06:07:33.082Z,82.46
2017-11-20T06:10:01.376Z,82.00
2017-11-20T06:12:30.472Z,81.70
2017-11-20T06:14:59.529Z,81.70
2017-11-20T06:17:27.822Z,81.77
2017-11-20T06:19:56.922Z,81.60
2017-11-20T06:22:26.015Z,81.57
2017-11-20T06:24:55.207Z,81.15
2017-11-20T06:27:23.535Z,81.08
2017-11-20T06:29:51.876Z,80.95
2017-11-20T06:32:20.939Z,81.11
2017-11-20T06:34:49.275Z,81.11
2017-11-20T06:37:18.330Z,80.93
2017-11-20T06:39:46.644Z,80.68
2017-11-20T06:42:14.948Z,80.41
2017-11-20T06:44:43.282Z,80.32
2017-11-20T06:47:11.975Z,80.16
2017-11-20T06:49:40.698Z,79.69
2017-11-20T06:52:08.992Z,79.22
2017-11-20T06:54:37.292Z,79.35
2017-11-20T06:57:06.395Z,79.12
2017-11-20T06:59:35.467Z,78.85
2017-11-20T07:02:03.787Z,78.23
2017-11-20T07:04:32.888Z,78.12
2017-11-20T07:07:01.219Z,78.08
2017-11-20T07:09:29.544Z,77.99
2017-11-20T07:11:57.855Z,77.89
2017-11-20T07:14:26.195Z,77.71
2017-11-20T07:16:54.491Z,77.74
2017-11-20T07:19:22.854Z,77.54
2017-11-20T07:21:51.140Z,76.99
2017-11-20T07:24:19.435Z,76.89
2017-11-20T07:27:02.402Z,77.02
2017-11-20T07:29:48.391Z,76.37
2017-11-20T07:32:17.455Z,76.27
2017-11-20T07:34:57.620Z,76.16
2017-11-20T07:40:56.427Z,75.02
2017-11-20T07:43:25.122Z,74.73
2017-11-20T07:45:54.239Z,74.21
2017-11-20T07:48:22.543Z,74.07
2017-11-20T07:50:50.890Z,73.91
2017-11-20T07:53:19.184Z,73.47
2017-11-20T07:55:47.480Z,73.60
2017-11-20T07:58:15.831Z,73.86
2017-11-20T08:00:44.123Z,73.65
2017-11-20T08:03:12.435Z,73.71
2017-11-20T08:05:40.767Z,73.17
2017-11-20T08:08:09.063Z,73.01
2017-11-20T08:10:37.374Z,73.21
2017-11-20T08:13:06.579Z,73.53
2017-11-20T08:15:35.708Z,73.74
2017-11-20T08:18:04.032Z,73.86
2017-11-20T08:20:32.340Z,73.92
2017-11-20T08:23:01.156Z,73.66
2017-11-20T08:25:29.472Z,73.85
2017-11-20T08:27:57.779Z,74.17
2017-11-20T08:30:26.868Z,74.07
2017-11-20T08:32:55.980Z,74.11
2017-11-20T08:35:25.080Z,73.58
2017-11-20T08:37:53.789Z,73.10
2017-11-20T08:40:22.091Z,72.48
2017-11-20T08:42:51.199Z,72.35
2017-11-20T08:45:19.510Z,72.60
2017-11-20T08:47:48.613Z,72.32
2017-11-20T08:50:16.978Z,71.84
2017-11-20T08:52:46.078Z,71.44
2017-11-20T08:55:14.815Z,71.97
2017-11-20T08:57:43.554Z,71.90
2017-11-20T09:00:11.890Z,71.44
2017-11-20T09:02:40.190Z,71.34
2017-11-20T09:05:08.918Z,71.10
2017-11-20T09:07:37.582Z,70.49
2017-11-20T09:10:05.930Z,70.43
2017-11-20T09:12:34.242Z,70.36
2017-11-20T09:15:02.579Z,69.63
2017-11-20T09:17:30.882Z,69.35
2017-11-20T09:19:59.992Z,68.72
2017-11-20T09:22:28.316Z,68.85
2017-11-20T09:24:57.454Z,69.15
2017-11-20T09:27:26.196Z,69.61
2017-11-20T09:29:54.502Z,69.38
2017-11-20T09:32:23.337Z,69.44
2017-11-20T09:34:51.641Z,68.56
2017-11-20T09:37:19.966Z,68.06
2017-11-20T09:39:48.254Z,68.39
2017-11-20T09:42:16.583Z,67.89
2017-11-20T09:44:44.887Z,67.21
2017-11-20T09:47:13.638Z,68.00
2017-11-20T09:49:42.329Z,68.17
2017-11-20T09:52:10.665Z,68.46
2017-11-20T09:54:39.785Z,67.98
2017-11-20T09:57:08.124Z,66.93
2017-11-20T09:59:36.439Z,66.34
2017-11-20T10:02:04.781Z,65.04
2017-11-20T10:04:33.086Z,65.24
2017-11-20T10:07:01.419Z,65.70
2017-11-20T10:09:30.130Z,65.61
2017-11-20T10:11:59.215Z,64.36
2017-11-20T10:14:27.519Z,63.47
2017-11-20T10:16:55.861Z,63.37
2017-11-20T10:19:24.554Z,63.07
2017-11-20T10:21:53.642Z,63.63
2017-11-20T10:24:22.337Z,63.81
2017-11-20T10:26:50.669Z,64.33
2017-11-20T10:29:18.980Z,64.60
2017-11-20T10:31:47.716Z,65.05
2017-11-20T10:34:16.023Z,64.14
2017-11-20T10:36:44.346Z,64.81
2017-11-20T10:39:13.433Z,64.49
2017-11-20T10:41:41.771Z,63.70
2017-11-20T10:44:10.873Z,63.44
2017-11-20T10:46:39.197Z,63.64
2017-11-20T10:49:07.529Z,63.18
2017-11-20T10:51:35.850Z,61.80
2017-11-20T10:54:04.182Z,62.37
2017-11-20T10:56:33.997Z,62.63
2017-11-20T10:59:02.321Z,62.84
2017-11-20T11:01:30.646Z,61.63
2017-11-20T11:03:58.961Z,61.53
2017-11-20T11:06:28.069Z,62.09
2017-11-20T11:08:56.379Z,62.13
2017-11-20T11:11:24.717Z,62.31
2017-11-20T11:13:53.023Z,60.81
2017-11-20T11:16:22.130Z,60.89
2017-11-20T11:18:51.237Z,62.27
2017-11-20T11:21:19.549Z,62.36
2017-11-20T11:23:47.889Z,61.96
2017-11-20T11:26:16.965Z,61.33
2017-11-20T11:28:45.294Z,61.69
2017-11-20T11:31:13.627Z,61.83
2017-11-20T11:33:42.753Z,62.39
2017-11-20T11:36:11.077Z,62.65
2017-11-20T11:38:39.381Z,62.71
2017-11-20T11:41:08.493Z,63.35
2017-11-20T11:43:36.782Z,63.20
2017-11-20T11:46:05.091Z,63.04
2017-11-20T11:48:33.429Z,63.20
2017-11-20T11:51:01.741Z,63.25
2017-11-20T11:53:30.490Z,62.98
2017-11-20T11:55:59.590Z,62.77
2017-11-20T11:58:27.897Z,63.01
2017-11-20T12:00:56.221Z,63.32
2017-11-20T12:03:25.308Z,63.67
2017-11-20T12:05:54.426Z,63.25
2017-11-20T12:08:22.716Z,63.60
2017-11-20T12:10:51.853Z,64.00
2017-11-20T12:13:20.181Z,64.47
2017-11-20T12:15:48.511Z,64.12
2017-11-20T12:18:17.213Z,63.23
2017-11-20T12:20:45.577Z,63.44
2017-11-20T12:23:13.869Z,64.06
2017-11-20T12:25:42.585Z,63.74
2017-11-20T12:28:10.925Z,63.58
2017-11-20T12:30:39.641Z,63.94
2017-11-20T12:33:07.974Z,64.12
2017-11-20T12:35:36.273Z,63.72
2017-11-20T12:38:04.653Z,63.34
2017-11-20T12:40:32.958Z,63.11
2017-11-20T12:43:01.308Z,63.06
2017-11-20T12:45:29.650Z,63.07
2017-11-20T12:47:57.985Z,62.98
2017-11-20T12:50:26.714Z,62.85
2017-11-20T12:52:55.053Z,63.12
2017-11-20T12:55:23.385Z,62.91
2017-11-20T12:57:51.724Z,63.46
2017-11-20T13:00:20.029Z,63.97
2017-11-20T13:02:48.785Z,63.96
2017-11-20T13:05:17.112Z,63.61
2017-11-20T13:07:45.428Z,63.50
2017-11-20T13:10:13.756Z,63.09
2017-11-20T13:12:42.845Z,63.29
2017-11-20T13:15:11.188Z,62.93
2017-11-20T13:17:39.492Z,62.30
2017-11-20T13:20:07.789Z,62.74
2017-11-20T13:22:36.160Z,62.33
2017-11-20T13:25:04.484Z,62.97
2017-11-20T13:27:33.573Z,63.64
2017-11-20T13:30:02.296Z,63.84
2017-11-20T13:32:30.986Z,63.58
2017-11-20T13:34:59.304Z,63.74
2017-11-20T13:37:28.372Z,64.08
2017-11-20T13:39:56.692Z,64.55
2017-11-20T13:42:25.045Z,64.81
2017-11-20T13:44:54.121Z,65.24
2017-11-20T13:47:22.844Z,65.31
2017-11-20T13:49:51.587Z,65.01
2017-11-20T13:52:20.296Z,65.30
2017-11-20T13:54:48.620Z,65.98
2017-11-20T13:57:16.911Z,66.20
2017-11-20T13:59:45.256Z,66.82
2017-11-20T14:02:13.950Z,67.33
2017-11-20T14:04:42.299Z,67.77
2017-11-20T14:07:11.368Z,68.19
2017-11-20T14:09:39.739Z,68.46
2017-11-20T14:12:08.080Z,68.58
2017-11-20T14:14:36.415Z,68.81
2017-11-20T14:17:04.778Z,68.92
2017-11-20T14:19:33.108Z,69.71
2017-11-20T14:22:01.431Z,69.66
2017-11-20T14:24:30.162Z,69.81
2017-11-20T14:26:58.853Z,70.24
2017-11-20T14:29:27.185Z,70.78
2017-11-20T14:31:55.505Z,71.65
2017-11-20T14:34:23.850Z,72.37
2017-11-20T14:36:52.194Z,71.85
2017-11-20T14:39:20.492Z,71.73
2017-11-20T14:41:50.331Z,72.26
2017-11-20T14:44:21.285Z,72.64
2017-11-20T14:46:51.467Z,72.11
2017-11-20T14:49:19.789Z,72.04
2017-11-20T14:51:52.412Z,72.67
2017-11-20T14:54:20.725Z,72.80
2017-11-20T14:56:49.849Z,73.47
2017-11-20T14:59:18.271Z,73.23
2017-11-20T15:01:53.821Z,73.80
2017-11-20T15:04:22.153Z,74.53
2017-11-20T15:06:50.476Z,74.91
2017-11-20T15:09:19.556Z,75.37
2017-11-20T15:11:48.843Z,75.53
2017-11-20T15:14:17.139Z,74.97
2017-11-20T15:16:45.483Z,75.06
2017-11-20T15:19:14.543Z,75.45
2017-11-20T15:21:43.732Z,75.98
2017-11-20T15:24:12.075Z,76.31
2017-11-20T15:26:41.263Z,77.06
2017-11-20T15:29:09.625Z,77.22
2017-11-20T15:31:37.957Z,77.94
2017-11-20T15:34:07.085Z,77.57
2017-11-20T15:36:35.412Z,76.38
2017-11-20T15:39:03.711Z,76.25
2017-11-20T15:41:32.820Z,76.48
2017-11-20T15:44:01.889Z,77.15
2017-11-20T15:46:30.985Z,77.73
2017-11-20T15:49:00.088Z,78.15
2017-11-20T15:51:29.177Z,78.29
2017-11-20T15:53:57.534Z,78.59
2017-11-20T15:56:25.983Z,79.19
2017-11-20T15:58:54.287Z,79.44
2017-11-20T16:01:22.637Z,79.71
2017-11-20T16:03:51.055Z,79.82
2017-11-20T16:06:19.946Z,80.03
2017-11-20T16:08:48.294Z,80.16
2017-11-20T16:11:16.615Z,80.46
2017-11-20T16:13:46.559Z,80.60
2017-11-20T16:16:16.237Z,80.68
2017-11-20T16:18:45.343Z,80.81
2017-11-20T16:21:14.832Z,80.93
2017-11-20T16:23:43.572Z,81.17
2017-11-20T16:26:12.731Z,81.25
2017-11-20T16:28:41.454Z,81.21
2017-11-20T16:31:10.211Z,81.38
2017-11-20T16:33:38.959Z,81.63
2017-11-20T16:36:07.259Z,81.91
2017-11-20T16:38:36.740Z,82.03
2017-11-20T16:41:06.011Z,82.26
2017-11-20T16:43:34.522Z,82.53
2017-11-20T16:46:02.892Z,82.72
2017-11-20T16:48:31.659Z,82.85
2017-11-20T16:50:59.983Z,82.94
2017-11-20T16:53:29.858Z,83.08
2017-11-20T16:55:58.203Z,83.25
2017-11-20T16:58:44.014Z,83.26
2017-11-20T17:01:12.349Z,83.36
2017-11-20T17:03:41.071Z,83.41
2017-11-20T17:06:09.480Z,83.36
2017-11-20T17:08:38.974Z,83.29
2017-11-20T17:11:07.290Z,83.04
2017-11-20T17:13:35.633Z,82.87
2017-11-20T17:16:03.947Z,82.07
2017-11-20T17:18:32.318Z,81.98
2017-11-20T17:21:01.779Z,81.76
2017-11-20T17:23:30.579Z,81.65
2017-11-20T17:25:59.733Z,81.63
2017-11-20T17:28:28.056Z,81.32
2017-11-20T17:30:56.480Z,81.29
2017-11-20T17:33:25.575Z,81.15
2017-11-20T17:35:53.905Z,81.20
2017-11-20T17:38:22.406Z,81.10
2017-11-20T17:40:53.688Z,81.16
2017-11-20T17:43:23.274Z,81.36
2017-11-20T17:45:53.007Z,81.63
2017-11-20T17:48:22.091Z,81.91
2017-11-20T17:50:51.287Z,82.31
2017-11-20T17:53:20.858Z,82.48
2017-11-20T17:55:50.854Z,82.60
2017-11-20T17:58:19.678Z,82.63
2017-11-20T18:00:49.148Z,82.63
2017-11-20T18:03:17.586Z,82.53
2017-11-20T18:05:47.434Z,82.58
2017-11-20T18:08:15.814Z,82.70
2017-11-20T18:10:44.930Z,82.85
2017-11-20T18:13:14.046Z,83.16
2017-11-20T18:15:43.133Z,83.42
2017-11-20T18:18:11.487Z,83.55
2017-11-20T18:20:40.237Z,83.63
2017-11-20T18:23:08.650Z,83.56
2017-11-20T18:25:37.026Z,83.60
2017-11-20T18:28:05.754Z,83.56
2017-11-20T18:30:37.038Z,83.48
2017-11-20T18:33:05.962Z,83.55
2017-11-20T18:35:35.155Z,83.56
2017-11-20T18:38:04.313Z,83.28
2017-11-20T18:40:33.452Z,83.18
2017-11-20T18:43:02.498Z,83.04
2017-11-20T18:45:33.050Z,82.94
2017-11-20T18:50:40.529Z,82.85
2017-11-20T18:53:08.905Z,82.78
2017-11-20T18:55:37.237Z,82.99
2017-11-20T18:58:07.380Z,83.30
2017-11-20T19:00:55.333Z,83.43
2017-11-20T19:03:29.983Z,83.72
2017-11-20T19:09:20.478Z,83.48
2017-11-20T19:11:51.029Z,83.34
2017-11-20T19:14:19.490Z,82.99
2017-11-20T19:19:53.072Z,82.51
2017-11-20T19:25:01.225Z,82.35
2017-11-20T19:27:31.183Z,82.31
2017-11-20T19:30:00.144Z,82.07
2017-11-20T19:32:29.598Z,81.68
2017-11-20T19:34:59.350Z,81.77
2017-11-20T19:37:28.057Z,82.14
2017-11-20T19:39:56.371Z,82.37
2017-11-20T19:42:25.168Z,82.34
2017-11-20T19:44:53.500Z,82.34
2017-11-20T19:47:23.386Z,81.82
2017-11-20T19:49:51.698Z,81.45
2017-11-20T19:52:20.400Z,81.22
2017-11-20T19:54:50.311Z,81.32
2017-11-20T19:57:21.584Z,81.06
2017-11-20T19:59:51.068Z,81.18
2017-11-20T20:02:20.369Z,81.34
2017-11-20T20:04:50.344Z,81.56
2017-11-20T20:07:20.152Z,81.77
2017-11-20T20:09:48.491Z,81.87
2017-11-20T20:12:17.258Z,82.14
2017-11-20T20:17:57.969Z,82.61
2017-11-20T20:20:26.409Z,82.76
2017-11-20T20:22:57.232Z,82.88
2017-11-20T20:25:25.601Z,82.76
2017-11-20T20:27:55.660Z,82.84
2017-11-20T20:30:24.277Z,82.61
2017-11-20T20:32:53.436Z,82.18
2017-11-20T20:35:22.573Z,81.78
2017-11-20T20:37:53.896Z,81.86
2017-11-20T20:40:22.278Z,81.68
2017-11-20T20:42:51.413Z,81.67
2017-11-20T20:45:22.130Z,81.65
2017-11-20T20:47:52.818Z,81.46
2017-11-20T20:50:21.209Z,81.57
2017-11-20T20:52:50.669Z,81.76
2017-11-20T20:55:19.000Z,81.73
2017-11-20T20:57:50.033Z,82.03
2017-11-20T21:00:18.475Z,82.28
2017-11-20T21:02:49.335Z,82.42
2017-11-20T21:05:19.189Z,82.58
2017-11-20T21:07:49.697Z,82.73
2017-11-20T21:10:24.352Z,82.75
2017-11-20T21:12:53.445Z,82.67
2017-11-20T21:15:21.762Z,82.73
2017-11-20T21:17:50.497Z,82.73
2017-11-20T21:20:19.573Z,82.74
2017-11-20T21:22:49.439Z,82.84
2017-11-20T21:25:18.231Z,83.01
2017-11-20T21:27:46.646Z,83.08
2017-11-20T21:30:15.762Z,83.26
2017-11-20T21:32:45.465Z,83.45
2017-11-20T21:35:14.988Z,83.52
2017-11-20T21:37:44.163Z,83.39
2017-11-20T21:40:13.284Z,83.53
2017-11-20T21:42:42.392Z,83.36
2017-11-20T21:45:10.721Z,83.34
2017-11-20T21:47:39.052Z,83.25
2017-11-20T21:50:07.350Z,83.28
2017-11-20T21:52:35.680Z,83.17
2017-11-20T21:55:04.758Z,83.01
2017-11-20T21:57:33.096Z,83.16
2017-11-20T22:00:01.397Z,83.20
2017-11-20T22:02:29.728Z,83.20
2017-11-20T22:04:58.476Z,83.18
2017-11-20T22:07:27.181Z,82.98
2017-11-20T22:09:56.756Z,82.68
2017-11-20T22:12:39.761Z,82.57
2017-11-20T22:15:08.104Z,82.54
2017-11-20T22:17:36.409Z,82.24
2017-11-20T22:20:04.769Z,82.12
2017-11-20T22:22:33.100Z,82.33
2017-11-20T22:25:01.422Z,82.30
2017-11-20T22:27:29.739Z,82.34
2017-11-20T22:29:59.541Z,82.27
2017-11-20T22:32:28.269Z,82.30
2017-11-20T22:34:58.151Z,82.25
2017-11-20T22:37:27.257Z,82.39
2017-11-20T22:39:55.561Z,82.33
2017-11-20T22:42:24.666Z,82.21
2017-11-20T22:44:52.983Z,82.12
2017-11-20T22:47:21.281Z,81.93
2017-11-20T22:49:49.612Z,81.74
2017-11-20T22:52:18.708Z,81.54
2017-11-20T22:54:47.053Z,81.34
2017-11-20T22:57:15.805Z,81.01
2017-11-20T22:59:44.127Z,80.89
2017-11-20T23:02:12.492Z,80.77
2017-11-20T23:04:40.816Z,80.63
2017-11-20T23:07:09.540Z,80.67
2017-11-20T23:09:38.626Z,80.63
2017-11-20T23:12:06.966Z,80.82
2017-11-20T23:14:36.079Z,80.82
2017-11-20T23:17:04.832Z,80.75
2017-11-20T23:19:33.186Z,80.52
2017-11-20T23:22:02.248Z,80.53
2017-11-20T23:24:30.950Z,80.56
2017-11-20T23:26:59.277Z,80.46
2017-11-20T23:29:27.591Z,80.49
2017-11-20T23:31:56.337Z,80.51
2017-11-20T23:34:24.644Z,80.60
2017-11-20T23:36:53.619Z,80.94
2017-11-20T23:39:21.950Z,81.06
2017-11-20T23:41:51.019Z,81.07
2017-11-20T23:44:20.491Z,81.14
2017-11-20T23:46:48.789Z,81.38
2017-11-20T23:49:17.122Z,81.31
2017-11-20T23:51:45.428Z,81.36
2017-11-20T23:54:14.903Z,81.21
2017-11-20T23:56:43.223Z,81.18
2017-11-20T23:59:11.571Z,81.01
